Time;durP1;ratioP1;P1;durP2;ratioP2;P2;SDS_P1;SDS_P2;PMS_P1;PMS_P2;Temp;Humidity;BMP_temperature;BMP_pressure;BME280_temperature;BME280_humidity;BME280_pressure;Samples;Min_cycle;Max_cycle;Signal;HPM_P1;HPM_P2
2021/01/14 00:01:19;;;;;;;6.03;1.08;;;5.60;75.00;;;;;;5094540;28;20064;-58
2021/01/14 00:03:45;;;;;;;7.00;1.63;;;5.60;75.00;;;;;;5093803;28;20027;-59
2021/01/14 00:06:12;;;;;;;10.73;1.00;;;5.60;74.60;;;;;;5094282;28;20028;-58
2021/01/14 00:08:37;;;;;;;12.68;1.50;;;5.50;74.70;;;;;;5094491;28;20047;-58
2021/01/14 00:11:03;;;;;;;5.30;1.15;;;5.60;74.80;;;;;;5093594;28;20028;-58
2021/01/14 00:13:29;;;;;;;4.43;1.35;;;5.60;75.20;;;;;;5094346;28;20062;-58
2021/01/14 00:15:54;;;;;;;5.95;1.30;;;5.60;75.00;;;;;;5094037;28;20035;-58
2021/01/14 00:18:20;;;;;;;7.07;1.38;;;5.60;74.60;;;;;;5093791;28;20024;-58
2021/01/14 00:20:45;;;;;;;9.18;1.33;;;5.60;74.80;;;;;;5094358;28;20034;-58
2021/01/14 00:23:11;;;;;;;5.80;1.30;;;5.60;74.80;;;;;;5094118;28;20394;-58
2021/01/14 00:25:37;;;;;;;7.22;1.17;;;5.50;74.70;;;;;;5099683;28;20027;-58
2021/01/14 00:28:03;;;;;;;3.28;1.08;;;5.50;74.90;;;;;;5101941;28;20097;-58
2021/01/14 00:30:30;;;;;;;5.85;1.10;;;5.50;75.30;;;;;;5093753;28;20024;-58
2021/01/14 00:32:57;;;;;;;8.30;1.40;;;5.40;75.70;;;;;;5093179;28;20460;-58
2021/01/14 00:35:23;;;;;;;6.18;1.80;;;5.40;75.30;;;;;;5093819;28;20383;-58
2021/01/14 00:37:52;;;;;;;7.32;1.63;;;5.40;75.10;;;;;;5094032;28;20126;-58
2021/01/14 00:40:24;;;;;;;8.98;1.30;;;5.30;75.30;;;;;;5092996;28;20035;-58
2021/01/14 00:42:57;;;;;;;9.48;1.48;;;5.40;75.90;;;;;;5093847;28;20024;-58
2021/01/14 00:45:24;;;;;;;5.43;0.77;;;5.30;75.60;;;;;;5092701;28;20032;-58
2021/01/14 00:47:50;;;;;;;4.13;1.00;;;5.30;75.90;;;;;;5093854;28;20371;-58
2021/01/14 00:50:16;;;;;;;6.10;1.30;;;5.30;75.70;;;;;;5093880;28;20126;-58
2021/01/14 00:52:41;;;;;;;2.72;0.80;;;5.30;75.50;;;;;;5092770;28;20048;-58
2021/01/14 00:55:10;;;;;;;1.88;1.02;;;5.20;75.50;;;;;;5093670;28;20703;-58
2021/01/14 00:57:36;;;;;;;3.45;1.00;;;5.20;75.30;;;;;;5093255;28;20032;-58
2021/01/14 01:00:08;;;;;;;1.73;0.93;;;5.20;74.70;;;;;;5092762;28;20020;-57
2021/01/14 01:02:33;;;;;;;3.92;1.17;;;5.10;74.60;;;;;;5093255;28;20458;-58
2021/01/14 01:04:59;;;;;;;1.88;1.05;;;5.20;74.80;;;;;;5093522;28;20056;-58
2021/01/14 01:07:25;;;;;;;1.35;0.95;;;5.20;74.60;;;;;;5092534;28;20040;-58
2021/01/14 01:09:50;;;;;;;8.18;1.50;;;5.20;74.80;;;;;;5093400;28;20103;-58
2021/01/14 01:12:16;;;;;;;6.35;1.40;;;5.20;74.90;;;;;;5092323;28;20094;-58
2021/01/14 01:14:43;;;;;;;5.55;1.08;;;5.20;74.80;;;;;;5092356;28;20028;-58
2021/01/14 01:17:08;;;;;;;4.05;1.00;;;5.10;75.00;;;;;;5093302;28;20024;-58
2021/01/14 01:19:34;;;;;;;7.65;1.42;;;5.20;75.00;;;;;;5092990;28;20146;-58
2021/01/14 01:22:00;;;;;;;3.17;0.90;;;5.20;74.90;;;;;;5092485;28;20023;-58
2021/01/14 01:24:25;;;;;;;2.05;0.80;;;5.20;74.70;;;;;;5092965;28;20487;-58
2021/01/14 01:26:52;;;;;;;8.18;1.30;;;5.20;74.50;;;;;;5107150;28;20111;-58
2021/01/14 01:29:19;;;;;;;1.75;0.80;;;5.20;74.40;;;;;;5092247;28;20040;-58
2021/01/14 01:31:44;;;;;;;4.05;1.00;;;5.20;74.20;;;;;;5093003;28;20543;-58
2021/01/14 01:34:10;;;;;;;4.63;1.13;;;5.20;74.40;;;;;;5102649;28;20128;-58
2021/01/14 01:36:36;;;;;;;8.23;1.35;;;5.20;74.50;;;;;;5107929;28;20135;-59
2021/01/14 01:39:03;;;;;;;3.30;1.20;;;5.20;75.20;;;;;;5110032;28;20020;-58
2021/01/14 01:41:28;;;;;;;7.20;1.05;;;5.20;74.40;;;;;;5109536;28;20439;-58
2021/01/14 01:43:54;;;;;;;13.30;1.90;;;5.20;74.30;;;;;;5107643;28;20068;-58
2021/01/14 01:46:25;;;;;;;6.13;1.17;;;5.20;74.30;;;;;;5110333;28;20031;-58
2021/01/14 01:48:51;;;;;;;4.82;1.33;;;5.10;73.90;;;;;;5107971;28;20085;-58
2021/01/14 01:51:18;;;;;;;5.50;1.30;;;5.20;73.70;;;;;;5108919;28;20024;-58
2021/01/14 01:53:44;;;;;;;5.60;1.15;;;5.10;73.60;;;;;;5110223;28;20071;-58
2021/01/14 01:56:10;;;;;;;7.70;1.20;;;5.20;73.80;;;;;;5106431;28;20066;-58
2021/01/14 01:58:39;;;;;;;4.13;1.42;;;5.10;73.80;;;;;;5110287;28;20036;-58
2021/01/14 02:01:07;;;;;;;6.45;1.02;;;5.10;74.10;;;;;;5107206;28;20054;-58
2021/01/14 02:03:32;;;;;;;9.25;1.63;;;5.10;74.90;;;;;;5109577;28;20049;-58
2021/01/14 02:05:58;;;;;;;8.20;1.40;;;5.10;75.10;;;;;;5107696;28;20531;-58
2021/01/14 02:08:59;;;;;;;4.50;1.10;;;5.10;74.90;;;;;;5109764;28;20043;-58
2021/01/14 02:11:34;;;;;;;8.63;1.83;;;5.10;75.20;;;;;;5103469;28;20395;-58
2021/01/14 02:14:14;;;;;;;6.25;1.40;;;5.10;75.10;;;;;;5110061;28;20475;-58
2021/01/14 02:16:42;;;;;;;13.52;1.60;;;5.10;75.40;;;;;;5107007;28;20055;-58
2021/01/14 02:19:29;;;;;;;8.35;1.50;;;5.10;75.50;;;;;;5110215;28;20080;-58
2021/01/14 02:22:01;;;;;;;10.95;1.55;;;5.10;75.70;;;;;;5109156;28;20033;-58
2021/01/14 02:24:39;;;;;;;8.07;1.10;;;5.00;75.50;;;;;;5112521;28;20436;-58
2021/01/14 02:27:09;;;;;;;6.95;1.70;;;5.00;75.40;;;;;;5097359;28;20084;-58
2021/01/14 02:29:36;;;;;;;8.15;1.45;;;5.00;75.50;;;;;;5096352;28;20048;-58
2021/01/14 02:32:02;;;;;;;4.60;1.30;;;5.00;75.30;;;;;;5095592;28;20021;-58
2021/01/14 02:34:28;;;;;;;4.47;1.52;;;5.00;75.70;;;;;;5096313;28;20036;-58
2021/01/14 02:36:54;;;;;;;6.43;2.30;;;5.00;75.60;;;;;;5095989;28;20055;-58
2021/01/14 02:39:19;;;;;;;6.35;1.38;;;5.00;75.60;;;;;;5095548;28;20024;-58
2021/01/14 02:41:45;;;;;;;4.38;1.35;;;5.00;75.50;;;;;;5096091;28;20063;-58
2021/01/14 02:44:11;;;;;;;2.85;1.25;;;5.00;75.50;;;;;;5096085;28;20031;-58
2021/01/14 02:46:37;;;;;;;2.22;1.05;;;4.90;75.20;;;;;;5095351;28;20028;-58
2021/01/14 02:49:10;;;;;;;3.03;0.77;;;4.90;75.20;;;;;;5095923;28;20028;-58
2021/01/14 02:51:51;;;;;;;5.82;1.45;;;4.90;75.00;;;;;;5095393;28;20055;-58
2021/01/14 02:54:17;;;;;;;3.83;1.20;;;5.00;74.90;;;;;;5095781;28;20047;-58
2021/01/14 02:56:48;;;;;;;7.55;1.52;;;4.90;74.70;;;;;;5096142;28;20034;-58
2021/01/14 02:59:14;;;;;;;6.88;1.67;;;4.90;74.60;;;;;;5095160;28;20032;-58
2021/01/14 03:01:39;;;;;;;3.08;0.98;;;4.90;74.50;;;;;;5095886;28;20081;-58
2021/01/14 03:04:05;;;;;;;3.10;1.17;;;4.90;74.40;;;;;;5095677;28;20028;-58
2021/01/14 03:06:31;;;;;;;7.38;0.90;;;4.90;74.40;;;;;;5100051;28;20432;-58
2021/01/14 03:08:57;;;;;;;7.97;1.00;;;4.90;74.50;;;;;;5096278;28;20047;-58
2021/01/14 03:11:31;;;;;;;4.13;1.10;;;5.00;74.70;;;;;;5099289;28;20047;-58
2021/01/14 03:13:57;;;;;;;5.35;1.50;;;4.90;74.50;;;;;;5108886;28;20035;-58
2021/01/14 03:16:23;;;;;;;8.50;1.08;;;4.90;74.40;;;;;;5095565;28;20383;-58
2021/01/14 03:18:50;;;;;;;6.55;1.30;;;4.90;74.30;;;;;;5109521;28;20505;-58
2021/01/14 03:21:20;;;;;;;4.30;1.45;;;4.90;74.30;;;;;;5094687;28;20096;-58
2021/01/14 03:23:47;;;;;;;10.00;1.75;;;4.90;74.30;;;;;;5095112;28;20111;-58
2021/01/14 03:26:14;;;;;;;6.78;1.42;;;4.90;74.70;;;;;;5095508;28;20364;-58
2021/01/14 03:28:40;;;;;;;7.28;1.27;;;4.90;74.80;;;;;;5094335;28;20047;-58
2021/01/14 03:31:06;;;;;;;4.35;1.40;;;4.90;75.20;;;;;;5095225;28;20604;-58
2021/01/14 03:33:32;;;;;;;6.15;1.40;;;4.90;75.40;;;;;;5094719;28;20445;-59
2021/01/14 03:35:58;;;;;;;8.50;1.55;;;4.90;76.00;;;;;;5093687;28;20044;-59
2021/01/14 03:38:24;;;;;;;11.35;1.83;;;4.80;76.70;;;;;;5095035;28;20036;-59
2021/01/14 03:40:50;;;;;;;9.35;2.13;;;4.80;76.70;;;;;;5094048;28;20027;-59
2021/01/14 03:43:16;;;;;;;21.70;2.65;;;4.80;77.00;;;;;;5105515;28;20036;-59
2021/01/14 03:45:42;;;;;;;5.10;1.45;;;4.80;77.40;;;;;;5098542;28;20039;-59
2021/01/14 03:48:08;;;;;;;10.15;1.70;;;4.80;77.60;;;;;;5094126;28;20036;-59
2021/01/14 03:50:33;;;;;;;7.82;1.77;;;4.70;77.70;;;;;;5094592;28;20034;-59
2021/01/14 03:52:59;;;;;;;7.25;1.55;;;4.70;78.00;;;;;;5094718;28;20028;-59
2021/01/14 03:55:25;;;;;;;5.25;1.50;;;4.70;78.20;;;;;;5093963;28;20032;-60
2021/01/14 03:57:51;;;;;;;9.05;2.28;;;4.70;78.30;;;;;;5094531;28;20056;-59
2021/01/14 04:00:17;;;;;;;6.75;1.63;;;4.70;78.10;;;;;;5094703;28;20483;-59
2021/01/14 04:02:42;;;;;;;5.93;1.80;;;4.70;78.00;;;;;;5093804;28;20028;-59
2021/01/14 04:05:09;;;;;;;9.55;1.75;;;4.70;78.30;;;;;;5094471;28;20436;-59
2021/01/14 04:07:34;;;;;;;14.32;1.95;;;4.70;78.20;;;;;;5094406;28;20047;-59
2021/01/14 04:10:01;;;;;;;8.35;2.08;;;4.80;78.30;;;;;;5093911;28;20026;-59
2021/01/14 04:12:28;;;;;;;4.95;1.77;;;4.80;78.10;;;;;;5094434;28;20051;-59
2021/01/14 04:14:54;;;;;;;7.80;1.88;;;4.70;77.70;;;;;;5094143;28;20077;-59
2021/01/14 04:17:20;;;;;;;4.90;1.92;;;4.70;77.70;;;;;;5103442;28;20467;-59
2021/01/14 04:19:46;;;;;;;5.60;1.40;;;4.70;77.50;;;;;;5098802;28;20085;-59
2021/01/14 04:22:14;;;;;;;12.45;2.33;;;4.70;77.10;;;;;;5094408;28;20028;-59
2021/01/14 04:24:40;;;;;;;3.25;1.80;;;4.70;77.10;;;;;;5093644;28;20111;-59
2021/01/14 04:27:05;;;;;;;3.70;1.73;;;4.80;77.20;;;;;;5108274;28;20040;-59
2021/01/14 04:29:31;;;;;;;5.22;1.65;;;4.70;77.10;;;;;;5094168;28;20031;-59
2021/01/14 04:31:57;;;;;;;5.20;1.60;;;4.70;77.10;;;;;;5093659;28;20043;-59
2021/01/14 04:34:23;;;;;;;5.55;1.83;;;4.70;77.20;;;;;;5093992;28;20056;-59
2021/01/14 04:37:00;;;;;;;4.78;1.83;;;4.70;77.40;;;;;;5093535;28;20052;-59
2021/01/14 04:39:26;;;;;;;3.92;1.70;;;4.70;77.70;;;;;;5093383;28;20032;-60
2021/01/14 04:41:59;;;;;;;8.95;2.25;;;4.70;77.90;;;;;;5093792;28;20431;-59
2021/01/14 04:44:26;;;;;;;3.83;1.83;;;4.60;77.60;;;;;;5092958;28;20810;-59
2021/01/14 04:47:03;;;;;;;5.85;2.05;;;4.60;77.90;;;;;;5093428;28;20036;-59
2021/01/14 04:49:29;;;;;;;7.57;1.63;;;4.60;77.80;;;;;;5093916;28;20036;-59
2021/01/14 04:52:02;;;;;;;5.95;1.98;;;4.60;77.90;;;;;;5091525;28;20387;-59
2021/01/14 04:54:33;;;;;;;9.05;1.95;;;4.70;77.90;;;;;;5093722;28;20036;-59
2021/01/14 04:57:03;;;;;;;6.32;2.13;;;4.70;77.70;;;;;;5093500;28;20028;-59
2021/01/14 04:59:32;;;;;;;10.07;1.80;;;4.70;77.40;;;;;;5092863;28;20471;-59
2021/01/14 05:01:58;;;;;;;6.00;1.88;;;4.70;77.30;;;;;;5093644;28;20066;-59
2021/01/14 05:04:30;;;;;;;6.90;2.30;;;4.70;77.00;;;;;;5093442;28;20036;-59
2021/01/14 05:06:58;;;;;;;12.30;2.67;;;4.70;76.80;;;;;;5092762;28;20029;-59
2021/01/14 05:09:32;;;;;;;4.78;1.83;;;4.70;76.60;;;;;;5093290;28;20028;-59
2021/01/14 05:11:59;;;;;;;5.32;1.83;;;4.80;76.50;;;;;;5093339;28;20467;-59
2021/01/14 05:14:25;;;;;;;13.15;2.10;;;4.80;76.30;;;;;;5092523;28;20036;-58
2021/01/14 05:16:52;;;;;;;10.02;2.42;;;4.80;76.20;;;;;;5093267;28;20028;-60
2021/01/14 05:19:18;;;;;;;9.40;1.98;;;4.80;76.00;;;;;;5092663;28;20047;-60
2021/01/14 05:21:45;;;;;;;5.60;2.00;;;4.80;75.90;;;;;;5093057;28;20028;-59
2021/01/14 05:24:15;;;;;;;3.17;1.70;;;4.80;75.60;;;;;;5093037;28;20080;-59
2021/01/14 05:26:42;;;;;;;12.57;2.10;;;4.90;75.50;;;;;;5092558;28;20126;-59
2021/01/14 05:29:11;;;;;;;6.32;2.00;;;4.80;75.40;;;;;;5092827;28;20438;-59
2021/01/14 05:31:37;;;;;;;8.90;2.33;;;4.90;75.30;;;;;;5092932;28;20035;-59
2021/01/14 05:34:02;;;;;;;10.85;1.88;;;4.90;75.30;;;;;;5092469;28;20031;-59
2021/01/14 05:36:51;;;;;;;3.45;1.67;;;4.90;75.30;;;;;;5092824;28;20040;-59
2021/01/14 05:39:17;;;;;;;9.15;2.05;;;4.90;75.30;;;;;;5093159;28;20036;-59
2021/01/14 05:41:43;;;;;;;8.13;3.05;;;4.90;75.30;;;;;;5092260;28;20024;-59
2021/01/14 05:44:09;;;;;;;6.90;2.28;;;4.90;75.30;;;;;;5092905;28;20016;-59
2021/01/14 05:46:34;;;;;;;10.18;2.10;;;4.90;75.40;;;;;;5092881;28;20039;-59
2021/01/14 05:49:02;;;;;;;11.75;2.45;;;4.80;75.50;;;;;;5091970;28;20067;-59
2021/01/14 05:51:30;;;;;;;8.30;1.98;;;4.80;75.60;;;;;;5092692;28;20107;-59
2021/01/14 05:54:10;;;;;;;24.90;3.40;;;4.90;75.80;;;;;;5092850;28;20047;-60
2021/01/14 05:56:54;;;;;;;11.07;2.95;;;4.80;76.10;;;;;;5098911;28;20027;-59
2021/01/14 05:59:32;;;;;;;7.82;2.72;;;4.70;76.50;;;;;;5112262;28;20109;-59
2021/01/14 06:02:00;;;;;;;11.70;2.50;;;4.70;76.70;;;;;;5108812;28;20037;-60
2021/01/14 06:04:27;;;;;;;8.50;2.63;;;4.70;77.00;;;;;;5096745;28;20111;-60
2021/01/14 06:06:57;;;;;;;7.88;2.28;;;4.70;77.10;;;;;;5096932;28;20035;-59
2021/01/14 06:09:23;;;;;;;10.65;3.15;;;4.60;77.90;;;;;;5096192;28;20036;-59
2021/01/14 06:11:50;;;;;;;6.25;2.33;;;4.60;77.20;;;;;;5096687;28;20020;-59
2021/01/14 06:14:31;;;;;;;8.15;2.33;;;4.60;77.10;;;;;;5096672;28;20024;-60
2021/01/14 06:17:02;;;;;;;5.72;2.63;;;4.60;76.70;;;;;;5096009;28;20494;-59
2021/01/14 06:19:29;;;;;;;7.88;2.22;;;4.60;76.60;;;;;;5096480;28;20553;-59
2021/01/14 06:21:56;;;;;;;8.15;2.50;;;4.70;76.50;;;;;;5111784;28;20023;-59
2021/01/14 06:24:37;;;;;;;5.90;2.35;;;4.60;76.30;;;;;;5108338;28;20028;-59
2021/01/14 06:27:05;;;;;;;7.70;2.63;;;4.60;76.10;;;;;;5105315;28;20103;-60
2021/01/14 06:29:36;;;;;;;8.98;2.80;;;4.70;76.20;;;;;;5102366;28;20047;-59
2021/01/14 06:32:18;;;;;;;8.50;3.00;;;4.70;76.10;;;;;;5107287;28;20019;-59
2021/01/14 06:34:46;;;;;;;13.75;2.80;;;4.60;75.90;;;;;;5112987;28;20102;-60
2021/01/14 06:37:13;;;;;;;5.90;2.30;;;4.60;75.90;;;;;;5112469;28;20073;-60
2021/01/14 06:39:51;;;;;;;7.07;3.55;;;4.60;76.00;;;;;;5113558;28;20093;-65
2021/01/14 06:42:25;;;;;;;7.03;2.70;;;4.60;76.00;;;;;;5107993;28;20032;-60
2021/01/14 06:44:53;;;;;;;14.07;2.88;;;4.60;75.90;;;;;;5110517;28;20051;-62
2021/01/14 06:47:48;;;;;;;3.58;2.22;;;4.70;76.00;;;;;;5097215;28;20502;-60
2021/01/14 06:50:23;;;;;;;6.30;2.25;;;4.70;75.90;;;;;;5112199;28;20071;-59
2021/01/14 06:52:54;;;;;;;6.70;2.72;;;4.70;75.90;;;;;;5113090;28;20028;-59
2021/01/14 06:55:25;;;;;;;6.15;2.83;;;4.70;75.90;;;;;;5111700;28;20039;-60
2021/01/14 06:58:14;;;;;;;9.52;2.92;;;4.70;76.10;;;;;;5110660;28;20094;-65
2021/01/14 07:00:45;;;;;;;9.90;1.92;;;4.70;76.10;;;;;;5111740;28;20125;-60
2021/01/14 07:03:19;;;;;;;5.20;2.65;;;4.70;76.20;;;;;;5111260;28;20088;-59
2021/01/14 07:05:53;;;;;;;8.40;3.20;;;4.60;76.30;;;;;;5111218;28;20036;-59
2021/01/14 07:08:38;;;;;;;4.80;2.08;;;4.70;76.60;;;;;;5106984;28;20535;-59
2021/01/14 07:11:16;;;;;;;8.25;2.35;;;4.60;76.80;;;;;;5111834;28;20111;-60
2021/01/14 07:13:44;;;;;;;10.95;3.00;;;4.60;77.00;;;;;;5108357;28;20027;-60
2021/01/14 07:16:11;;;;;;;14.05;2.90;;;4.60;77.30;;;;;;5112258;28;20030;-60
2021/01/14 07:18:38;;;;;;;7.88;3.00;;;4.60;77.50;;;;;;5112268;28;20024;-60
2021/01/14 07:21:04;;;;;;;7.22;2.60;;;4.60;77.50;;;;;;5112531;28;20436;-59
2021/01/14 07:23:35;;;;;;;10.52;2.78;;;4.60;77.50;;;;;;5110651;28;20107;-59
2021/01/14 07:26:01;;;;;;;6.10;2.60;;;4.70;77.60;;;;;;5110191;28;20028;-60
2021/01/14 07:28:27;;;;;;;6.20;2.45;;;4.70;77.60;;;;;;5108069;28;20048;-60
2021/01/14 07:30:53;;;;;;;17.05;3.40;;;4.60;77.50;;;;;;5110868;28;20023;-59
2021/01/14 07:33:26;;;;;;;7.85;2.65;;;4.70;77.40;;;;;;5109424;28;20375;-59
2021/01/14 07:35:53;;;;;;;7.50;2.60;;;4.60;77.30;;;;;;5110834;28;20390;-60
2021/01/14 07:38:19;;;;;;;6.38;2.60;;;4.60;77.30;;;;;;5112472;28;20066;-60
2021/01/14 07:40:45;;;;;;;10.25;2.58;;;4.70;77.40;;;;;;5109488;28;20066;-59
2021/01/14 07:43:14;;;;;;;9.63;2.70;;;4.60;77.30;;;;;;5110561;28;20049;-60
2021/01/14 07:45:43;;;;;;;14.02;3.10;;;4.70;77.20;;;;;;5108668;28;20031;-60
2021/01/14 07:48:20;;;;;;;6.68;2.58;;;4.60;77.00;;;;;;5104435;28;20816;-60
2021/01/14 07:50:59;;;;;;;13.75;3.25;;;4.70;77.00;;;;;;5109059;28;20019;-60
2021/01/14 07:53:26;;;;;;;8.82;3.10;;;4.70;76.90;;;;;;5104128;28;20073;-61
2021/01/14 07:55:52;;;;;;;7.90;3.17;;;4.70;76.90;;;;;;5103345;28;22117;-60
2021/01/14 07:58:21;;;;;;;11.65;2.35;;;4.70;76.80;;;;;;5100968;28;20539;-60
2021/01/14 08:01:08;;;;;;;5.68;2.47;;;4.70;76.80;;;;;;5098690;28;20112;-60
2021/01/14 08:03:42;;;;;;;9.18;2.42;;;4.80;76.80;;;;;;5109309;28;20062;-60
2021/01/14 08:06:30;;;;;;;6.07;2.63;;;4.70;76.60;;;;;;5099533;28;20387;-60
2021/01/14 08:08:56;;;;;;;7.20;2.50;;;4.80;76.50;;;;;;5101963;28;20475;-60
2021/01/14 08:11:24;;;;;;;6.70;2.80;;;4.80;76.40;;;;;;5106690;28;20030;-61
2021/01/14 08:14:20;;;;;;;13.63;2.55;;;4.80;76.90;;;;;;5104066;28;20475;-60
2021/01/14 08:16:48;;;;;;;11.57;3.90;;;4.80;76.10;;;;;;5086791;28;20047;-61
2021/01/14 08:19:17;;;;;;;5.55;2.47;;;4.80;76.10;;;;;;5093428;28;20115;-61
2021/01/14 08:21:58;;;;;;;10.32;2.67;;;4.80;76.10;;;;;;5102937;28;20487;-60
2021/01/14 08:24:38;;;;;;;7.18;2.75;;;4.80;76.00;;;;;;5109175;28;20024;-61
2021/01/14 08:27:06;;;;;;;7.78;3.47;;;4.90;75.90;;;;;;5105978;28;20023;-61
2021/01/14 08:29:40;;;;;;;11.80;3.10;;;5.00;75.70;;;;;;5110411;28;20896;-61
2021/01/14 08:32:38;;;;;;;10.38;2.90;;;5.00;75.60;;;;;;5106751;28;20047;-61
2021/01/14 08:35:31;;;;;;;8.25;2.60;;;5.00;75.60;;;;;;5108224;28;20032;-60
2021/01/14 08:38:15;;;;;;;9.73;3.08;;;5.10;75.40;;;;;;5091030;28;20059;-61
2021/01/14 08:40:41;;;;;;;;;;;5.10;75.20;;;;;;5096137;28;20032;-60
2021/01/14 08:43:07;;;;;;;8.82;2.53;;;5.10;75.20;;;;;;5097062;28;20363;-60
2021/01/14 08:45:43;;;;;;;7.97;2.85;;;5.10;74.90;;;;;;5093939;28;20020;-60
2021/01/14 08:48:13;;;;;;;11.93;3.17;;;5.20;75.00;;;;;;5100275;28;20036;-60
2021/01/14 08:50:53;;;;;;;13.32;3.88;;;5.20;75.00;;;;;;5105449;28;20085;-60
2021/01/14 08:53:19;;;;;;;9.82;2.55;;;5.20;75.00;;;;;;5109277;28;20050;-60
2021/01/14 08:55:52;;;;;;;9.10;3.45;;;5.30;74.80;;;;;;5103329;28;20463;-60
2021/01/14 08:58:31;;;;;;;13.55;2.88;;;5.20;74.70;;;;;;5104323;28;20119;-60
2021/01/14 09:00:57;;;;;;;11.55;2.55;;;5.30;74.60;;;;;;5104082;28;20039;-59
2021/01/14 09:03:26;;;;;;;8.05;2.55;;;5.30;74.40;;;;;;5111613;28;20024;-59
2021/01/14 09:05:52;;;;;;;10.75;2.70;;;5.30;74.30;;;;;;5104508;28;20090;-60
2021/01/14 09:08:17;;;;;;;13.57;2.92;;;5.30;74.30;;;;;;5109891;28;20496;-60
2021/01/14 09:10:56;;;;;;;11.07;3.05;;;5.30;74.30;;;;;;5108123;28;20118;-59
2021/01/14 09:13:27;;;;;;;5.80;3.13;;;5.30;74.10;;;;;;5099378;28;20028;-60
2021/01/14 09:15:54;;;;;;;6.35;3.00;;;5.30;74.20;;;;;;5097954;28;20028;-59
2021/01/14 09:18:31;;;;;;;8.05;2.58;;;5.30;74.10;;;;;;5094146;28;20630;-59
2021/01/14 09:20:56;;;;;;;5.65;2.00;;;5.30;74.10;;;;;;5108155;28;20020;-60
2021/01/14 09:23:33;;;;;;;5.78;2.08;;;5.30;74.40;;;;;;5104499;28;20031;-65
2021/01/14 09:26:01;;;;;;;6.95;2.65;;;5.30;74.60;;;;;;5108343;28;20111;-59
2021/01/14 09:28:28;;;;;;;8.57;2.28;;;5.30;74.50;;;;;;5108466;28;20305;-60
2021/01/14 09:31:02;;;;;;;8.85;3.10;;;5.40;74.60;;;;;;5112004;28;20015;-60
2021/01/14 09:33:33;;;;;;;4.90;2.47;;;5.40;74.40;;;;;;5104645;28;20487;-60
2021/01/14 09:36:04;;;;;;;9.07;3.15;;;5.40;74.20;;;;;;5110141;28;20059;-60
2021/01/14 09:38:42;;;;;;;7.97;2.83;;;5.40;74.00;;;;;;5104674;28;20024;-60
2021/01/14 09:41:09;;;;;;;13.18;3.15;;;5.40;74.00;;;;;;5110038;28;20049;-60
2021/01/14 09:43:39;;;;;;;7.82;2.42;;;5.40;73.90;;;;;;5101273;28;20032;-60
2021/01/14 09:46:04;;;;;;;10.10;2.75;;;5.40;74.00;;;;;;5098152;28;20028;-60
2021/01/14 09:48:33;;;;;;;6.07;2.35;;;5.40;73.90;;;;;;5097930;28;20534;-61
2021/01/14 09:51:06;;;;;;;12.50;3.95;;;5.40;73.90;;;;;;5107793;28;20055;-60
2021/01/14 09:53:31;;;;;;;5.93;2.80;;;5.40;73.80;;;;;;5099961;28;20430;-60
2021/01/14 09:55:57;;;;;;;9.52;3.35;;;5.40;73.70;;;;;;5094742;28;20078;-61
2021/01/14 09:58:25;;;;;;;5.88;2.65;;;5.40;73.70;;;;;;5105829;28;20039;-60
2021/01/14 10:00:52;;;;;;;12.05;4.53;;;5.40;73.40;;;;;;5108712;28;20064;-60
2021/01/14 10:03:21;;;;;;;2.00;1.80;;;5.40;73.50;;;;;;5107660;28;20110;-60
2021/01/14 10:05:50;;;;;;;5.75;2.25;;;5.30;74.20;;;;;;5111095;28;20467;-61
2021/01/14 10:08:24;;;;;;;5.07;2.05;;;5.30;74.40;;;;;;5104112;28;20387;-60
2021/01/14 10:10:49;;;;;;;;;;;5.40;74.20;;;;;;5105684;28;20487;-60
2021/01/14 10:13:15;;;;;;;10.38;3.00;;;5.30;74.60;;;;;;5101633;28;19908;-60
2021/01/14 10:15:42;;;;;;;11.32;3.00;;;5.40;74.40;;;;;;5103223;28;20051;-60
2021/01/14 10:18:25;;;;;;;11.63;2.95;;;5.30;74.60;;;;;;5098853;28;20027;-60
2021/01/14 10:21:01;;;;;;;9.73;3.05;;;5.30;74.60;;;;;;5100221;28;20378;-61
2021/01/14 10:23:27;;;;;;;11.07;2.90;;;5.30;74.50;;;;;;5107311;28;20042;-61
2021/01/14 10:25:54;;;;;;;14.45;3.47;;;5.30;74.40;;;;;;5109956;28;20016;-60
2021/01/14 10:28:23;;;;;;;9.65;3.03;;;5.30;74.70;;;;;;5108333;28;20036;-60
2021/01/14 10:30:50;;;;;;;8.32;3.00;;;5.20;74.60;;;;;;5107895;28;20011;-61
2021/01/14 10:33:16;;;;;;;4.80;2.60;;;5.20;74.90;;;;;;5099577;28;20046;-61
2021/01/14 10:35:42;;;;;;;9.57;3.28;;;5.20;75.00;;;;;;5104985;28;20032;-61
2021/01/14 10:38:12;;;;;;;9.43;3.28;;;5.30;75.10;;;;;;5109389;28;20039;-61
2021/01/14 10:40:43;;;;;;;10.52;2.97;;;5.20;74.70;;;;;;5108073;28;20016;-61
2021/01/14 10:43:10;;;;;;;5.25;2.42;;;5.30;74.80;;;;;;5109508;28;20070;-61
2021/01/14 10:45:38;;;;;;;6.55;2.85;;;5.20;74.70;;;;;;5111951;28;20074;-61
2021/01/14 10:48:15;;;;;;;2.47;1.67;;;5.30;74.70;;;;;;5110393;28;20049;-60
2021/01/14 10:50:43;;;;;;;16.60;3.33;;;5.30;74.90;;;;;;5109059;28;20092;-62
2021/01/14 10:53:09;;;;;;;13.32;2.72;;;5.30;75.00;;;;;;5112650;28;20027;-61
2021/01/14 10:55:36;;;;;;;6.03;2.50;;;5.40;75.00;;;;;;5097700;28;20095;-62
2021/01/14 10:58:06;;;;;;;5.63;1.75;;;5.30;74.90;;;;;;5094298;28;20051;-61
2021/01/14 11:00:40;;;;;;;11.80;2.15;;;5.30;74.90;;;;;;5095174;28;20028;-61
2021/01/14 11:03:10;;;;;;;8.80;2.92;;;5.40;75.20;;;;;;5095290;28;20077;-62
2021/01/14 11:05:45;;;;;;;6.95;3.08;;;5.40;75.00;;;;;;5108436;28;20479;-62
2021/01/14 11:08:12;;;;;;;10.25;2.22;;;5.40;75.00;;;;;;5102672;28;20044;-62
2021/01/14 11:10:39;;;;;;;11.52;2.95;;;5.40;75.00;;;;;;5111641;28;20057;-62
2021/01/14 11:13:08;;;;;;;10.35;3.03;;;5.50;75.00;;;;;;5110691;28;20124;-62
2021/01/14 11:15:34;;;;;;;9.20;3.10;;;5.50;74.90;;;;;;5112929;28;20039;-61
2021/01/14 11:18:00;;;;;;;5.28;2.10;;;5.50;75.20;;;;;;5104187;28;20032;-62
2021/01/14 11:20:26;;;;;;;5.53;2.72;;;5.50;75.10;;;;;;5108253;28;20120;-62
2021/01/14 11:22:52;;;;;;;7.85;3.50;;;5.60;75.20;;;;;;5110471;28;20084;-62
2021/01/14 11:25:18;;;;;;;3.42;2.08;;;5.60;75.20;;;;;;5108849;28;20035;-61
2021/01/14 11:27:43;;;;;;;4.63;1.67;;;5.60;75.10;;;;;;5102394;28;20040;-63
2021/01/14 11:30:09;;;;;;;3.40;1.80;;;5.60;75.20;;;;;;5095803;28;20023;-59
2021/01/14 11:32:35;;;;;;;7.40;2.97;;;5.70;75.30;;;;;;5094873;28;20062;-58
2021/01/14 11:35:01;;;;;;;7.82;3.10;;;5.60;75.00;;;;;;5096171;28;20100;-61
2021/01/14 11:37:26;;;;;;;6.53;2.97;;;5.70;75.20;;;;;;5095268;28;20087;-61
2021/01/14 11:39:52;;;;;;;2.85;1.35;;;5.70;74.90;;;;;;5094938;28;20178;-61
2021/01/14 11:42:17;;;;;;;6.40;2.72;;;5.70;75.20;;;;;;5101904;28;20486;-61
2021/01/14 11:44:43;;;;;;;8.32;3.15;;;5.70;75.70;;;;;;5111876;28;20101;-61
2021/01/14 11:47:08;;;;;;;18.73;3.40;;;5.70;75.40;;;;;;5111341;28;20020;-61
2021/01/14 11:49:34;;;;;;;7.93;2.92;;;5.80;75.10;;;;;;5112610;28;20110;-61
2021/01/14 11:52:00;;;;;;;11.32;2.85;;;5.80;75.40;;;;;;5112126;28;20043;-61
2021/01/14 11:54:25;;;;;;;6.75;2.90;;;5.80;74.90;;;;;;5112789;28;20038;-61
2021/01/14 11:56:52;;;;;;;7.55;3.47;;;5.80;74.90;;;;;;5110797;28;20034;-61
2021/01/14 11:59:18;;;;;;;9.80;3.45;;;5.70;74.70;;;;;;5106048;27;20106;-61
2021/01/14 12:01:44;;;;;;;7.68;3.15;;;5.70;74.50;;;;;;5110737;28;20102;-62
2021/01/14 12:04:10;;;;;;;15.13;3.92;;;5.80;74.60;;;;;;5110681;28;20420;-61
2021/01/14 12:06:35;;;;;;;6.45;3.08;;;5.80;74.90;;;;;;5112538;28;20032;-61
2021/01/14 12:09:01;;;;;;;8.18;3.65;;;5.80;75.00;;;;;;5111049;28;20043;-61
2021/01/14 12:11:27;;;;;;;9.00;3.45;;;5.80;74.70;;;;;;5110201;28;20033;-62
2021/01/14 12:13:55;;;;;;;12.38;3.60;;;5.80;74.50;;;;;;5110324;28;20060;-61
2021/01/14 12:16:21;;;;;;;10.48;3.38;;;5.80;74.20;;;;;;5093127;28;20035;-61
2021/01/14 12:18:46;;;;;;;9.45;3.25;;;5.80;74.10;;;;;;5104579;28;20035;-62
2021/01/14 12:21:16;;;;;;;5.45;3.10;;;5.80;74.10;;;;;;5104971;28;20035;-62
2021/01/14 12:23:46;;;;;;;9.70;3.33;;;5.80;73.80;;;;;;5109963;28;20189;-61
2021/01/14 12:26:11;;;;;;;8.98;2.22;;;5.90;73.70;;;;;;5102093;28;20036;-61
2021/01/14 12:28:37;;;;;;;5.40;1.98;;;5.90;73.90;;;;;;5112033;28;20043;-61
2021/01/14 12:31:03;;;;;;;8.02;3.42;;;5.90;74.20;;;;;;5113080;28;20028;-61
2021/01/14 12:33:29;;;;;;;8.63;3.40;;;6.00;74.20;;;;;;5112173;28;20043;-61
2021/01/14 12:35:54;;;;;;;2.75;1.45;;;5.90;73.70;;;;;;5110437;28;20061;-62
2021/01/14 12:38:20;;;;;;;13.95;3.83;;;6.00;74.10;;;;;;5110565;28;20031;-61
2021/01/14 12:40:45;;;;;;;6.13;2.20;;;6.00;73.90;;;;;;5094767;28;20024;-61
2021/01/14 12:43:11;;;;;;;13.15;2.88;;;6.00;74.00;;;;;;5095157;28;20020;-61
2021/01/14 12:45:37;;;;;;;9.38;3.15;;;6.00;73.70;;;;;;5096443;28;20032;-61
2021/01/14 12:48:02;;;;;;;7.18;2.72;;;6.00;74.00;;;;;;5101134;28;20219;-61
2021/01/14 12:50:28;;;;;;;12.60;3.72;;;6.10;73.90;;;;;;5095200;28;20452;-61
2021/01/14 12:52:54;;;;;;;7.82;3.85;;;6.10;73.80;;;;;;5093965;28;20024;-61
2021/01/14 12:55:20;;;;;;;14.95;4.00;;;6.10;73.40;;;;;;5094968;28;20158;-61
2021/01/14 12:57:45;;;;;;;12.77;3.90;;;6.10;73.30;;;;;;5092884;28;20110;-61
2021/01/14 13:00:11;;;;;;;9.35;4.07;;;6.10;73.40;;;;;;5103510;28;20028;-61
2021/01/14 13:02:40;;;;;;;9.43;3.90;;;6.20;73.30;;;;;;5099823;28;20108;-61
2021/01/14 13:05:06;;;;;;;5.63;3.42;;;6.20;73.30;;;;;;5101146;28;20053;-61